sensor_id;sensor_type;location;lat;lon;timestamp;temperature;humidity
2855;DHT22;1435;49.472;10.940;2022-09-09T00:00:53;16.00;99.90
2855;DHT22;1435;49.472;10.940;2022-09-09T00:06:03;15.90;99.90
2855;DHT22;1435;49.472;10.940;2022-09-09T00:11:08;15.90;99.90
2855;DHT22;1435;49.472;10.940;2022-09-09T00:16:16;15.80;99.90
2855;DHT22;1435;49.472;10.940;2022-09-09T00:21:23;15.70;99.90
2855;DHT22;1435;49.472;10.940;2022-09-09T00:26:32;15.60;99.90
2855;DHT22;1435;49.472;10.940;2022-09-09T00:31:37;15.60;99.90
2855;DHT22;1435;49.472;10.940;2022-09-09T00:36:39;15.60;99.90
2855;DHT22;1435;49.472;10.940;2022-09-09T00:41:51;15.50;99.90
2855;DHT22;1435;49.472;10.940;2022-09-09T00:47:09;15.40;99.90
2855;DHT22;1435;49.472;10.940;2022-09-09T00:52:23;15.40;99.90
2855;DHT22;1435;49.472;10.940;2022-09-09T00:57:29;15.40;99.90
2855;DHT22;1435;49.472;10.940;2022-09-09T01:02:40;15.40;99.90
2855;DHT22;1435;49.472;10.940;2022-09-09T01:07:48;15.40;99.90
2855;DHT22;1435;49.472;10.940;2022-09-09T01:12:51;15.40;99.90
2855;DHT22;1435;49.472;10.940;2022-09-09T01:17:59;15.30;99.90
2855;DHT22;1435;49.472;10.940;2022-09-09T01:23:14;15.30;99.90
2855;DHT22;1435;49.472;10.940;2022-09-09T01:28:23;15.20;99.90
2855;DHT22;1435;49.472;10.940;2022-09-09T01:33:26;15.10;99.90
2855;DHT22;1435;49.472;10.940;2022-09-09T01:38:29;15.10;99.90
2855;DHT22;1435;49.472;10.940;2022-09-09T01:43:34;15.00;99.90
2855;DHT22;1435;49.472;10.940;2022-09-09T01:48:36;15.00;99.90
2855;DHT22;1435;49.472;10.940;2022-09-09T01:53:39;14.90;99.90
2855;DHT22;1435;49.472;10.940;2022-09-09T01:58:55;14.90;99.90
2855;DHT22;1435;49.472;10.940;2022-09-09T02:03:58;14.90;99.90
2855;DHT22;1435;49.472;10.940;2022-09-09T02:09:06;14.90;99.90
2855;DHT22;1435;49.472;10.940;2022-09-09T02:14:13;14.90;99.90
2855;DHT22;1435;49.472;10.940;2022-09-09T02:19:20;14.90;99.90
2855;DHT22;1435;49.472;10.940;2022-09-09T02:24:28;14.90;99.90
2855;DHT22;1435;49.472;10.940;2022-09-09T02:29:34;14.80;99.90
2855;DHT22;1435;49.472;10.940;2022-09-09T02:34:43;14.80;99.90
2855;DHT22;1435;49.472;10.940;2022-09-09T02:39:45;14.80;99.90
2855;DHT22;1435;49.472;10.940;2022-09-09T02:44:49;14.80;99.90
2855;DHT22;1435;49.472;10.940;2022-09-09T02:49:59;14.80;99.90
2855;DHT22;1435;49.472;10.940;2022-09-09T02:55:08;14.80;99.90
2855;DHT22;1435;49.472;10.940;2022-09-09T03:00:14;14.70;99.90
2855;DHT22;1435;49.472;10.940;2022-09-09T03:05:16;14.70;99.90
2855;DHT22;1435;49.472;10.940;2022-09-09T03:10:18;14.70;99.90
2855;DHT22;1435;49.472;10.940;2022-09-09T03:15:21;14.70;99.90
2855;DHT22;1435;49.472;10.940;2022-09-09T03:20:24;14.70;99.90
2855;DHT22;1435;49.472;10.940;2022-09-09T03:25:26;14.70;99.90
2855;DHT22;1435;49.472;10.940;2022-09-09T03:30:30;14.70;99.90
2855;DHT22;1435;49.472;10.940;2022-09-09T03:35:32;14.70;99.90
2855;DHT22;1435;49.472;10.940;2022-09-09T03:40:34;14.70;99.90
2855;DHT22;1435;49.472;10.940;2022-09-09T03:45:38;14.70;99.90
2855;DHT22;1435;49.472;10.940;2022-09-09T03:50:44;14.70;99.90
2855;DHT22;1435;49.472;10.940;2022-09-09T03:55:46;14.70;99.90
2855;DHT22;1435;49.472;10.940;2022-09-09T04:00:55;14.70;99.90
2855;DHT22;1435;49.472;10.940;2022-09-09T04:05:59;14.70;99.90
2855;DHT22;1435;49.472;10.940;2022-09-09T04:11:01;14.70;99.90
2855;DHT22;1435;49.472;10.940;2022-09-09T04:16:10;14.70;99.90
2855;DHT22;1435;49.472;10.940;2022-09-09T04:21:13;14.70;99.90
2855;DHT22;1435;49.472;10.940;2022-09-09T04:26:15;14.70;99.90
2855;DHT22;1435;49.472;10.940;2022-09-09T04:31:20;14.70;99.90
2855;DHT22;1435;49.472;10.940;2022-09-09T04:36:23;14.70;99.90
2855;DHT22;1435;49.472;10.940;2022-09-09T04:41:25;14.70;99.90
2855;DHT22;1435;49.472;10.940;2022-09-09T04:46:28;14.70;99.90
2855;DHT22;1435;49.472;10.940;2022-09-09T04:51:30;14.70;99.90
2855;DHT22;1435;49.472;10.940;2022-09-09T04:56:31;14.60;99.90
2855;DHT22;1435;49.472;10.940;2022-09-09T05:01:35;14.60;99.90
2855;DHT22;1435;49.472;10.940;2022-09-09T05:06:37;14.60;99.90
2855;DHT22;1435;49.472;10.940;2022-09-09T05:11:38;14.70;99.90
2855;DHT22;1435;49.472;10.940;2022-09-09T05:16:41;14.70;99.90
2855;DHT22;1435;49.472;10.940;2022-09-09T05:21:45;14.70;99.90
2855;DHT22;1435;49.472;10.940;2022-09-09T05:26:46;14.70;99.90
2855;DHT22;1435;49.472;10.940;2022-09-09T05:31:50;14.70;99.90
2855;DHT22;1435;49.472;10.940;2022-09-09T05:36:51;14.70;99.90
2855;DHT22;1435;49.472;10.940;2022-09-09T05:41:54;14.80;99.90
2855;DHT22;1435;49.472;10.940;2022-09-09T05:46:57;14.80;99.90
2855;DHT22;1435;49.472;10.940;2022-09-09T05:51:59;14.90;99.90
2855;DHT22;1435;49.472;10.940;2022-09-09T05:57:00;14.90;99.90
2855;DHT22;1435;49.472;10.940;2022-09-09T06:02:04;14.90;99.90
2855;DHT22;1435;49.472;10.940;2022-09-09T06:07:05;14.90;99.90
2855;DHT22;1435;49.472;10.940;2022-09-09T06:12:07;15.00;99.90
2855;DHT22;1435;49.472;10.940;2022-09-09T06:17:10;14.90;99.90
2855;DHT22;1435;49.472;10.940;2022-09-09T06:22:12;14.90;99.90
2855;DHT22;1435;49.472;10.940;2022-09-09T06:27:14;14.90;99.90
2855;DHT22;1435;49.472;10.940;2022-09-09T06:32:17;15.00;99.90
2855;DHT22;1435;49.472;10.940;2022-09-09T06:37:19;15.10;99.90
2855;DHT22;1435;49.472;10.940;2022-09-09T06:42:21;15.20;99.90
2855;DHT22;1435;49.472;10.940;2022-09-09T06:47:24;15.30;99.90
2855;DHT22;1435;49.472;10.940;2022-09-09T06:52:25;15.40;99.90
2855;DHT22;1435;49.472;10.940;2022-09-09T06:57:27;15.40;99.90
2855;DHT22;1435;49.472;10.940;2022-09-09T07:02:31;15.50;99.90
2855;DHT22;1435;49.472;10.940;2022-09-09T07:07:33;15.60;99.90
2855;DHT22;1435;49.472;10.940;2022-09-09T07:12:34;15.70;99.90
2855;DHT22;1435;49.472;10.940;2022-09-09T07:17:38;15.70;99.90
2855;DHT22;1435;49.472;10.940;2022-09-09T07:22:41;15.80;99.90
2855;DHT22;1435;49.472;10.940;2022-09-09T07:27:42;15.80;99.90
2855;DHT22;1435;49.472;10.940;2022-09-09T07:32:45;15.90;99.90
2855;DHT22;1435;49.472;10.940;2022-09-09T07:37:47;15.90;99.90
2855;DHT22;1435;49.472;10.940;2022-09-09T07:42:49;16.00;99.90
2855;DHT22;1435;49.472;10.940;2022-09-09T07:47:52;16.00;99.90
2855;DHT22;1435;49.472;10.940;2022-09-09T07:52:54;16.10;99.90
2855;DHT22;1435;49.472;10.940;2022-09-09T07:57:56;16.20;99.90
2855;DHT22;1435;49.472;10.940;2022-09-09T08:02:59;16.30;99.90
2855;DHT22;1435;49.472;10.940;2022-09-09T08:08:02;16.40;99.90
2855;DHT22;1435;49.472;10.940;2022-09-09T08:13:04;16.60;99.90
2855;DHT22;1435;49.472;10.940;2022-09-09T08:18:07;16.70;99.90
2855;DHT22;1435;49.472;10.940;2022-09-09T08:23:09;16.90;99.90
2855;DHT22;1435;49.472;10.940;2022-09-09T08:28:11;17.00;99.90
2855;DHT22;1435;49.472;10.940;2022-09-09T08:33:14;17.20;99.90
2855;DHT22;1435;49.472;10.940;2022-09-09T08:38:16;17.30;99.90
2855;DHT22;1435;49.472;10.940;2022-09-09T08:43:21;17.40;99.90
2855;DHT22;1435;49.472;10.940;2022-09-09T08:48:38;17.60;99.90
2855;DHT22;1435;49.472;10.940;2022-09-09T08:53:45;17.70;99.90
2855;DHT22;1435;49.472;10.940;2022-09-09T08:58:49;17.80;99.90
2855;DHT22;1435;49.472;10.940;2022-09-09T09:03:58;17.90;99.90
2855;DHT22;1435;49.472;10.940;2022-09-09T09:09:05;18.10;99.90
2855;DHT22;1435;49.472;10.940;2022-09-09T09:14:14;18.30;99.90
2855;DHT22;1435;49.472;10.940;2022-09-09T09:19:20;18.40;99.90
2855;DHT22;1435;49.472;10.940;2022-09-09T09:24:27;18.50;99.90
2855;DHT22;1435;49.472;10.940;2022-09-09T09:29:33;18.70;99.90
2855;DHT22;1435;49.472;10.940;2022-09-09T09:34:36;18.80;99.90
2855;DHT22;1435;49.472;10.940;2022-09-09T09:39:38;18.90;99.90
2855;DHT22;1435;49.472;10.940;2022-09-09T09:44:41;19.10;99.90
2855;DHT22;1435;49.472;10.940;2022-09-09T09:49:52;19.30;99.90
2855;DHT22;1435;49.472;10.940;2022-09-09T09:54:56;19.30;99.90
2855;DHT22;1435;49.472;10.940;2022-09-09T10:00:04;19.40;99.90
2855;DHT22;1435;49.472;10.940;2022-09-09T10:05:16;19.50;99.90
2855;DHT22;1435;49.472;10.940;2022-09-09T10:10:22;19.50;99.90
2855;DHT22;1435;49.472;10.940;2022-09-09T10:15:35;19.50;99.90
2855;DHT22;1435;49.472;10.940;2022-09-09T10:20:42;19.50;99.90
2855;DHT22;1435;49.472;10.940;2022-09-09T10:25:59;19.50;99.90
2855;DHT22;1435;49.472;10.940;2022-09-09T10:31:15;19.50;99.90
2855;DHT22;1435;49.472;10.940;2022-09-09T10:36:24;19.50;99.90
2855;DHT22;1435;49.472;10.940;2022-09-09T10:41:40;19.60;99.90
2855;DHT22;1435;49.472;10.940;2022-09-09T10:47:11;19.60;99.90
2855;DHT22;1435;49.472;10.940;2022-09-09T10:52:20;19.70;99.90
2855;DHT22;1435;49.472;10.940;2022-09-09T10:57:31;19.80;99.90
2855;DHT22;1435;49.472;10.940;2022-09-09T11:02:34;20.00;99.90
2855;DHT22;1435;49.472;10.940;2022-09-09T11:07:41;20.20;99.90
2855;DHT22;1435;49.472;10.940;2022-09-09T11:12:45;20.40;99.90
2855;DHT22;1435;49.472;10.940;2022-09-09T11:17:50;20.50;99.90
2855;DHT22;1435;49.472;10.940;2022-09-09T11:22:59;20.50;99.90
2855;DHT22;1435;49.472;10.940;2022-09-09T11:28:19;20.60;99.90
2855;DHT22;1435;49.472;10.940;2022-09-09T11:33:49;20.60;99.90
2855;DHT22;1435;49.472;10.940;2022-09-09T11:38:59;20.60;99.90
2855;DHT22;1435;49.472;10.940;2022-09-09T11:44:10;20.60;99.90
2855;DHT22;1435;49.472;10.940;2022-09-09T11:49:27;20.70;99.90
2855;DHT22;1435;49.472;10.940;2022-09-09T11:54:32;20.70;99.90
2855;DHT22;1435;49.472;10.940;2022-09-09T11:59:35;20.70;99.90
2855;DHT22;1435;49.472;10.940;2022-09-09T12:04:38;20.80;99.90
2855;DHT22;1435;49.472;10.940;2022-09-09T12:09:49;20.80;99.90
2855;DHT22;1435;49.472;10.940;2022-09-09T12:15:03;20.80;99.90
2855;DHT22;1435;49.472;10.940;2022-09-09T12:20:20;20.80;99.90
2855;DHT22;1435;49.472;10.940;2022-09-09T12:25:32;20.80;99.90
2855;DHT22;1435;49.472;10.940;2022-09-09T12:30:43;20.90;99.90
2855;DHT22;1435;49.472;10.940;2022-09-09T12:35:52;20.90;99.90
2855;DHT22;1435;49.472;10.940;2022-09-09T12:40:57;20.90;99.90
2855;DHT22;1435;49.472;10.940;2022-09-09T12:46:02;20.90;99.90
2855;DHT22;1435;49.472;10.940;2022-09-09T12:51:07;20.90;99.90
2855;DHT22;1435;49.472;10.940;2022-09-09T12:56:21;20.80;99.90
2855;DHT22;1435;49.472;10.940;2022-09-09T13:01:25;20.40;99.90
2855;DHT22;1435;49.472;10.940;2022-09-09T13:06:29;20.30;99.90
2855;DHT22;1435;49.472;10.940;2022-09-09T13:11:37;20.10;99.90
2855;DHT22;1435;49.472;10.940;2022-09-09T13:16:42;19.90;99.90
2855;DHT22;1435;49.472;10.940;2022-09-09T13:21:44;19.80;99.90
2855;DHT22;1435;49.472;10.940;2022-09-09T13:26:55;19.70;99.90
2855;DHT22;1435;49.472;10.940;2022-09-09T13:32:04;19.50;99.90
2855;DHT22;1435;49.472;10.940;2022-09-09T13:37:21;19.30;99.90
2855;DHT22;1435;49.472;10.940;2022-09-09T13:47:32;19.50;99.90
2855;DHT22;1435;49.472;10.940;2022-09-09T13:52:34;19.50;99.90
2855;DHT22;1435;49.472;10.940;2022-09-09T13:57:38;19.60;99.90
2855;DHT22;1435;49.472;10.940;2022-09-09T14:02:40;19.60;99.90
2855;DHT22;1435;49.472;10.940;2022-09-09T14:07:42;19.60;99.90
2855;DHT22;1435;49.472;10.940;2022-09-09T14:12:46;19.70;99.90
2855;DHT22;1435;49.472;10.940;2022-09-09T14:17:48;19.70;99.90
2855;DHT22;1435;49.472;10.940;2022-09-09T14:22:50;19.70;99.90
2855;DHT22;1435;49.472;10.940;2022-09-09T14:27:55;19.70;99.90
2855;DHT22;1435;49.472;10.940;2022-09-09T14:32:57;19.70;99.90
2855;DHT22;1435;49.472;10.940;2022-09-09T14:37:58;19.70;99.90
2855;DHT22;1435;49.472;10.940;2022-09-09T14:43:02;19.80;99.90
2855;DHT22;1435;49.472;10.940;2022-09-09T14:48:04;19.80;99.90
2855;DHT22;1435;49.472;10.940;2022-09-09T14:53:06;19.80;99.90
2855;DHT22;1435;49.472;10.940;2022-09-09T14:58:10;19.90;99.90
2855;DHT22;1435;49.472;10.940;2022-09-09T15:03:13;19.90;99.90
2855;DHT22;1435;49.472;10.940;2022-09-09T15:08:15;19.70;99.90
2855;DHT22;1435;49.472;10.940;2022-09-09T15:13:18;19.70;99.90
2855;DHT22;1435;49.472;10.940;2022-09-09T15:18:20;19.70;99.90
2855;DHT22;1435;49.472;10.940;2022-09-09T15:23:22;19.70;99.90
2855;DHT22;1435;49.472;10.940;2022-09-09T15:28:25;19.80;99.90
2855;DHT22;1435;49.472;10.940;2022-09-09T15:33:27;19.90;99.90
2855;DHT22;1435;49.472;10.940;2022-09-09T15:38:31;19.80;99.90
2855;DHT22;1435;49.472;10.940;2022-09-09T15:43:34;19.80;99.90
2855;DHT22;1435;49.472;10.940;2022-09-09T15:48:35;19.80;99.90
2855;DHT22;1435;49.472;10.940;2022-09-09T15:53:39;19.90;99.90
2855;DHT22;1435;49.472;10.940;2022-09-09T15:58:42;20.00;99.90
2855;DHT22;1435;49.472;10.940;2022-09-09T16:03:44;20.10;99.90
2855;DHT22;1435;49.472;10.940;2022-09-09T16:08:48;20.10;99.90
2855;DHT22;1435;49.472;10.940;2022-09-09T16:13:53;20.20;99.90
2855;DHT22;1435;49.472;10.940;2022-09-09T16:18:57;20.30;99.90
2855;DHT22;1435;49.472;10.940;2022-09-09T16:24:00;20.40;99.90
2855;DHT22;1435;49.472;10.940;2022-09-09T16:29:05;20.40;99.90
2855;DHT22;1435;49.472;10.940;2022-09-09T16:34:07;20.60;99.90
2855;DHT22;1435;49.472;10.940;2022-09-09T16:39:10;20.60;99.90
2855;DHT22;1435;49.472;10.940;2022-09-09T16:44:15;20.60;99.90
2855;DHT22;1435;49.472;10.940;2022-09-09T16:49:18;20.60;99.90
2855;DHT22;1435;49.472;10.940;2022-09-09T16:54:20;20.60;99.90
2855;DHT22;1435;49.472;10.940;2022-09-09T16:59:25;20.70;99.90
2855;DHT22;1435;49.472;10.940;2022-09-09T17:04:27;20.50;99.90
2855;DHT22;1435;49.472;10.940;2022-09-09T17:09:31;20.50;99.90
2855;DHT22;1435;49.472;10.940;2022-09-09T17:14:34;20.40;99.90
2855;DHT22;1435;49.472;10.940;2022-09-09T17:19:36;20.40;99.90
2855;DHT22;1435;49.472;10.940;2022-09-09T17:24:37;20.30;99.90
2855;DHT22;1435;49.472;10.940;2022-09-09T17:29:42;20.30;99.90
2855;DHT22;1435;49.472;10.940;2022-09-09T17:34:44;20.20;99.90
2855;DHT22;1435;49.472;10.940;2022-09-09T17:39:46;20.00;99.90
2855;DHT22;1435;49.472;10.940;2022-09-09T17:44:49;20.00;99.90
2855;DHT22;1435;49.472;10.940;2022-09-09T17:49:51;19.80;99.90
2855;DHT22;1435;49.472;10.940;2022-09-09T17:54:53;19.80;99.90
2855;DHT22;1435;49.472;10.940;2022-09-09T17:59:58;19.60;99.90
2855;DHT22;1435;49.472;10.940;2022-09-09T18:05:00;19.50;99.90
2855;DHT22;1435;49.472;10.940;2022-09-09T18:10:03;19.40;99.90
2855;DHT22;1435;49.472;10.940;2022-09-09T18:15:07;19.30;99.90
2855;DHT22;1435;49.472;10.940;2022-09-09T18:20:09;19.10;99.90
2855;DHT22;1435;49.472;10.940;2022-09-09T18:25:11;19.10;99.90
2855;DHT22;1435;49.472;10.940;2022-09-09T18:30:15;19.00;99.90
2855;DHT22;1435;49.472;10.940;2022-09-09T18:35:16;18.60;99.90
2855;DHT22;1435;49.472;10.940;2022-09-09T18:40:18;18.60;99.90
2855;DHT22;1435;49.472;10.940;2022-09-09T18:45:21;18.50;99.90
2855;DHT22;1435;49.472;10.940;2022-09-09T18:50:23;18.40;99.90
2855;DHT22;1435;49.472;10.940;2022-09-09T18:55:24;18.30;99.90
2855;DHT22;1435;49.472;10.940;2022-09-09T19:00:29;18.10;99.90
2855;DHT22;1435;49.472;10.940;2022-09-09T19:05:32;18.10;99.90
2855;DHT22;1435;49.472;10.940;2022-09-09T19:10:35;17.90;99.90
2855;DHT22;1435;49.472;10.940;2022-09-09T19:15:38;17.80;99.90
2855;DHT22;1435;49.472;10.940;2022-09-09T19:20:40;17.70;99.90
2855;DHT22;1435;49.472;10.940;2022-09-09T19:25:41;17.60;99.90
2855;DHT22;1435;49.472;10.940;2022-09-09T19:30:44;17.40;99.90
2855;DHT22;1435;49.472;10.940;2022-09-09T19:35:56;17.40;99.90
2855;DHT22;1435;49.472;10.940;2022-09-09T19:41:02;17.40;99.90
2855;DHT22;1435;49.472;10.940;2022-09-09T19:46:07;17.40;99.90
2855;DHT22;1435;49.472;10.940;2022-09-09T19:51:12;17.30;99.90
2855;DHT22;1435;49.472;10.940;2022-09-09T19:56:15;17.20;99.90
2855;DHT22;1435;49.472;10.940;2022-09-09T20:01:21;17.20;99.90
2855;DHT22;1435;49.472;10.940;2022-09-09T20:06:25;17.20;99.90
2855;DHT22;1435;49.472;10.940;2022-09-09T20:11:27;17.20;99.90
2855;DHT22;1435;49.472;10.940;2022-09-09T20:16:30;17.20;99.90
2855;DHT22;1435;49.472;10.940;2022-09-09T20:21:38;17.10;99.90
2855;DHT22;1435;49.472;10.940;2022-09-09T20:26:40;17.10;99.90
2855;DHT22;1435;49.472;10.940;2022-09-09T20:31:43;17.10;99.90
2855;DHT22;1435;49.472;10.940;2022-09-09T20:36:45;17.10;99.90
2855;DHT22;1435;49.472;10.940;2022-09-09T20:41:48;17.10;99.90
2855;DHT22;1435;49.472;10.940;2022-09-09T20:46:52;17.00;99.90
2855;DHT22;1435;49.472;10.940;2022-09-09T20:51:56;17.00;99.90
2855;DHT22;1435;49.472;10.940;2022-09-09T20:56:58;16.90;99.90
2855;DHT22;1435;49.472;10.940;2022-09-09T21:02:01;16.90;99.90
2855;DHT22;1435;49.472;10.940;2022-09-09T21:07:03;16.80;99.90
2855;DHT22;1435;49.472;10.940;2022-09-09T21:12:07;16.70;99.90
2855;DHT22;1435;49.472;10.940;2022-09-09T21:17:11;16.70;99.90
2855;DHT22;1435;49.472;10.940;2022-09-09T21:22:12;16.60;99.90
2855;DHT22;1435;49.472;10.940;2022-09-09T21:27:14;16.50;99.90
2855;DHT22;1435;49.472;10.940;2022-09-09T21:32:17;16.50;99.90
2855;DHT22;1435;49.472;10.940;2022-09-09T21:37:20;16.40;99.90
2855;DHT22;1435;49.472;10.940;2022-09-09T21:42:22;16.30;99.90
2855;DHT22;1435;49.472;10.940;2022-09-09T21:47:25;16.30;99.90
2855;DHT22;1435;49.472;10.940;2022-09-09T21:52:28;16.30;99.90
2855;DHT22;1435;49.472;10.940;2022-09-09T21:57:30;16.20;99.90
2855;DHT22;1435;49.472;10.940;2022-09-09T22:02:33;16.20;99.90
2855;DHT22;1435;49.472;10.940;2022-09-09T22:07:37;16.10;99.90
2855;DHT22;1435;49.472;10.940;2022-09-09T22:12:39;16.10;99.90
2855;DHT22;1435;49.472;10.940;2022-09-09T22:17:42;16.10;99.90
2855;DHT22;1435;49.472;10.940;2022-09-09T22:22:44;16.10;99.90
2855;DHT22;1435;49.472;10.940;2022-09-09T22:27:45;16.00;99.90
2855;DHT22;1435;49.472;10.940;2022-09-09T22:32:49;16.10;99.90
2855;DHT22;1435;49.472;10.940;2022-09-09T22:37:50;16.00;99.90
2855;DHT22;1435;49.472;10.940;2022-09-09T22:42:52;16.00;99.90
2855;DHT22;1435;49.472;10.940;2022-09-09T22:47:55;16.10;99.90
2855;DHT22;1435;49.472;10.940;2022-09-09T22:52:57;15.90;99.90
2855;DHT22;1435;49.472;10.940;2022-09-09T22:57:59;15.90;99.90
2855;DHT22;1435;49.472;10.940;2022-09-09T23:03:02;15.90;99.90
2855;DHT22;1435;49.472;10.940;2022-09-09T23:08:04;15.90;99.90
2855;DHT22;1435;49.472;10.940;2022-09-09T23:13:06;15.90;99.90
2855;DHT22;1435;49.472;10.940;2022-09-09T23:18:10;15.90;99.90
2855;DHT22;1435;49.472;10.940;2022-09-09T23:23:12;15.90;99.90
2855;DHT22;1435;49.472;10.940;2022-09-09T23:28:14;15.80;99.90
2855;DHT22;1435;49.472;10.940;2022-09-09T23:33:17;15.80;99.90
2855;DHT22;1435;49.472;10.940;2022-09-09T23:38:19;15.90;99.90
2855;DHT22;1435;49.472;10.940;2022-09-09T23:43:21;15.90;99.90
2855;DHT22;1435;49.472;10.940;2022-09-09T23:48:27;15.90;99.90
2855;DHT22;1435;49.472;10.940;2022-09-09T23:53:29;15.90;99.90
2855;DHT22;1435;49.472;10.940;2022-09-09T23:58:31;15.90;99.90
